Shepard, North Dakota
Current Conditions -  °F | °C
As of 12:35 AM on Thursday 27 Nov 2014 (Local Time) from KBAC Reporting Station
Clear Clear  
Wind Chill: -11°   Ceiling: Unl
Heat Index: -11°   Visibility: 10mi
Dew Point: -13°   Wind: 0mph
Humidity: 92%   Direction: NA
Pressure: 30.5"   Gusts: NA
Location:  47.4507°N, 98.2031°W
Report Text: KBAC 270635Z AUTO 00000KT 10SM CLR M24/M25 A3050 RMK AO2
Loading
Personal Weather Stations






























Interactive Weather Map New forecast layout! Learn more

10-Day Weather Forecast

Advertisements
Track Severe Weather on mobile